sensor_id;sensor_type;location;lat;lon;timestamp;pressure;altitude;pressure_sealevel;temperature;humidity
57048;BME280;42934;54.294;18.598;2023-09-30T00:01:23;100657.53;;;18.93;89.04
57048;BME280;42934;54.294;18.598;2023-09-30T00:03:52;100670.09;;;18.91;89.23
57048;BME280;42934;54.294;18.598;2023-09-30T00:06:21;100666.56;;;18.91;89.06
57048;BME280;42934;54.294;18.598;2023-09-30T00:08:52;100670.19;;;18.90;89.15
57048;BME280;42934;54.294;18.598;2023-09-30T00:11:21;100668.91;;;18.82;90.17
57048;BME280;42934;54.294;18.598;2023-09-30T00:13:50;100660.63;;;18.87;89.59
57048;BME280;42934;54.294;18.598;2023-09-30T00:16:19;100666.91;;;18.86;89.65
57048;BME280;42934;54.294;18.598;2023-09-30T00:18:48;100666.06;;;18.86;89.70
57048;BME280;42934;54.294;18.598;2023-09-30T00:21:17;100653.81;;;18.83;90.17
57048;BME280;42934;54.294;18.598;2023-09-30T00:23:46;100658.78;;;18.88;89.47
57048;BME280;42934;54.294;18.598;2023-09-30T00:26:16;100652.97;;;18.82;89.41
57048;BME280;42934;54.294;18.598;2023-09-30T00:28:47;100662.50;;;18.85;88.81
57048;BME280;42934;54.294;18.598;2023-09-30T00:31:16;100665.38;;;18.82;88.73
57048;BME280;42934;54.294;18.598;2023-09-30T00:33:45;100667.19;;;18.81;88.83
57048;BME280;42934;54.294;18.598;2023-09-30T00:36:14;100662.84;;;18.80;88.48
57048;BME280;42934;54.294;18.598;2023-09-30T00:38:45;100662.84;;;18.80;88.58
57048;BME280;42934;54.294;18.598;2023-09-30T00:41:15;100658.44;;;18.79;88.38
57048;BME280;42934;54.294;18.598;2023-09-30T00:43:46;100653.47;;;18.75;88.59
57048;BME280;42934;54.294;18.598;2023-09-30T00:46:25;100654.41;;;18.74;88.45
57048;BME280;42934;54.294;18.598;2023-09-30T00:48:55;100657.13;;;18.72;88.47
57048;BME280;42934;54.294;18.598;2023-09-30T00:51:26;100651.94;;;18.71;88.34
57048;BME280;42934;54.294;18.598;2023-09-30T00:53:58;100633.41;;;18.69;88.68
57048;BME280;42934;54.294;18.598;2023-09-30T00:56:30;100637.16;;;18.79;87.81
57048;BME280;42934;54.294;18.598;2023-09-30T00:58:59;100643.47;;;18.78;87.88
57048;BME280;42934;54.294;18.598;2023-09-30T01:01:29;100646.97;;;18.79;87.62
57048;BME280;42934;54.294;18.598;2023-09-30T01:03:59;100648.50;;;18.69;88.14
57048;BME280;42934;54.294;18.598;2023-09-30T01:06:28;100649.28;;;18.71;87.95
57048;BME280;42934;54.294;18.598;2023-09-30T01:08:57;100648.16;;;18.60;88.64
57048;BME280;42934;54.294;18.598;2023-09-30T01:11:28;100643.25;;;18.54;88.85
57048;BME280;42934;54.294;18.598;2023-09-30T01:13:58;100642.84;;;18.60;88.37
57048;BME280;42934;54.294;18.598;2023-09-30T01:16:27;100654.44;;;18.59;88.41
57048;BME280;42934;54.294;18.598;2023-09-30T01:18:56;100648.16;;;18.60;88.42
57048;BME280;42934;54.294;18.598;2023-09-30T01:21:25;100643.91;;;18.58;88.43
57048;BME280;42934;54.294;18.598;2023-09-30T01:23:57;100644.75;;;18.58;88.32
57048;BME280;42934;54.294;18.598;2023-09-30T01:26:26;100640.59;;;18.54;88.49
57048;BME280;42934;54.294;18.598;2023-09-30T01:28:55;100636.09;;;18.42;89.57
57048;BME280;42934;54.294;18.598;2023-09-30T01:31:24;100639.59;;;18.43;89.37
57048;BME280;42934;54.294;18.598;2023-09-30T01:33:54;100637.59;;;18.46;89.34
57048;BME280;42934;54.294;18.598;2023-09-30T01:36:24;100647.56;;;18.43;89.39
57048;BME280;42934;54.294;18.598;2023-09-30T01:38:53;100641.97;;;18.47;88.83
57048;BME280;42934;54.294;18.598;2023-09-30T01:41:24;100634.63;;;18.51;88.72
57048;BME280;42934;54.294;18.598;2023-09-30T01:43:53;100644.22;;;18.53;88.38
57048;BME280;42934;54.294;18.598;2023-09-30T01:46:22;100645.28;;;18.51;88.71
57048;BME280;42934;54.294;18.598;2023-09-30T01:48:51;100652.41;;;18.50;89.14
57048;BME280;42934;54.294;18.598;2023-09-30T01:51:20;100647.53;;;18.57;88.57
57048;BME280;42934;54.294;18.598;2023-09-30T01:53:50;100660.75;;;18.44;89.83
57048;BME280;42934;54.294;18.598;2023-09-30T01:56:19;100650.72;;;18.35;90.67
57048;BME280;42934;54.294;18.598;2023-09-30T01:58:50;100645.47;;;18.48;90.06
57048;BME280;42934;54.294;18.598;2023-09-30T02:01:19;100643.66;;;18.48;89.63
57048;BME280;42934;54.294;18.598;2023-09-30T02:03:48;100640.16;;;18.48;89.83
57048;BME280;42934;54.294;18.598;2023-09-30T02:06:17;100646.53;;;18.45;90.28
57048;BME280;42934;54.294;18.598;2023-09-30T02:08:46;100648.78;;;18.51;89.95
57048;BME280;42934;54.294;18.598;2023-09-30T02:11:15;100641.84;;;18.49;89.85
57048;BME280;42934;54.294;18.598;2023-09-30T02:13:44;100641.22;;;18.45;90.87
57048;BME280;42934;54.294;18.598;2023-09-30T02:16:14;100636.19;;;18.41;91.40
57048;BME280;42934;54.294;18.598;2023-09-30T02:18:44;100627.00;;;18.32;92.55
57048;BME280;42934;54.294;18.598;2023-09-30T02:21:13;100627.88;;;18.32;92.41
57048;BME280;42934;54.294;18.598;2023-09-30T02:23:42;100625.22;;;18.32;92.50
57048;BME280;42934;54.294;18.598;2023-09-30T02:26:15;100634.97;;;18.32;92.58
57048;BME280;42934;54.294;18.598;2023-09-30T02:28:44;100638.44;;;18.20;93.42
57048;BME280;42934;54.294;18.598;2023-09-30T02:31:15;100645.06;;;18.27;93.19
57048;BME280;42934;54.294;18.598;2023-09-30T02:33:45;100650.47;;;18.25;93.23
57048;BME280;42934;54.294;18.598;2023-09-30T02:36:14;100657.81;;;18.22;93.43
57048;BME280;42934;54.294;18.598;2023-09-30T02:38:43;100663.00;;;18.23;93.49
57048;BME280;42934;54.294;18.598;2023-09-30T02:41:15;100650.78;;;18.21;93.50
57048;BME280;42934;54.294;18.598;2023-09-30T02:43:45;100672.34;;;18.16;94.51
57048;BME280;42934;54.294;18.598;2023-09-30T02:46:15;100671.09;;;18.22;94.62
57048;BME280;42934;54.294;18.598;2023-09-30T02:48:44;100668.06;;;18.13;95.01
57048;BME280;42934;54.294;18.598;2023-09-30T02:51:13;100675.34;;;18.24;94.42
57048;BME280;42934;54.294;18.598;2023-09-30T02:53:43;100676.84;;;18.28;94.12
57048;BME280;42934;54.294;18.598;2023-09-30T02:56:11;100672.78;;;18.23;94.86
57048;BME280;42934;54.294;18.598;2023-09-30T02:58:41;100675.72;;;18.32;94.21
57048;BME280;42934;54.294;18.598;2023-09-30T03:01:14;100670.56;;;18.29;94.44
57048;BME280;42934;54.294;18.598;2023-09-30T03:03:46;100674.84;;;18.32;94.56
57048;BME280;42934;54.294;18.598;2023-09-30T03:06:15;100666.38;;;18.39;94.07
57048;BME280;42934;54.294;18.598;2023-09-30T03:08:46;100670.94;;;18.37;94.09
57048;BME280;42934;54.294;18.598;2023-09-30T03:11:15;100649.28;;;18.44;93.81
57048;BME280;42934;54.294;18.598;2023-09-30T03:13:44;100658.81;;;18.33;94.68
57048;BME280;42934;54.294;18.598;2023-09-30T03:16:14;100674.13;;;18.30;94.49
57048;BME280;42934;54.294;18.598;2023-09-30T03:18:44;100667.56;;;18.35;94.21
57048;BME280;42934;54.294;18.598;2023-09-30T03:21:16;100660.41;;;18.36;94.16
57048;BME280;42934;54.294;18.598;2023-09-30T03:23:45;100673.97;;;18.46;93.52
57048;BME280;42934;54.294;18.598;2023-09-30T03:26:14;100677.03;;;18.39;93.35
57048;BME280;42934;54.294;18.598;2023-09-30T03:28:43;100676.25;;;18.37;93.55
57048;BME280;42934;54.294;18.598;2023-09-30T03:31:15;100674.44;;;18.38;93.39
57048;BME280;42934;54.294;18.598;2023-09-30T03:33:48;100681.28;;;18.42;93.14
57048;BME280;42934;54.294;18.598;2023-09-30T03:36:17;100682.59;;;18.49;92.70
57048;BME280;42934;54.294;18.598;2023-09-30T03:38:46;100697.03;;;18.45;92.91
57048;BME280;42934;54.294;18.598;2023-09-30T03:41:15;100703.97;;;18.48;92.77
57048;BME280;42934;54.294;18.598;2023-09-30T03:43:47;100715.66;;;18.45;93.09
57048;BME280;42934;54.294;18.598;2023-09-30T03:46:18;100718.13;;;18.34;93.69
57048;BME280;42934;54.294;18.598;2023-09-30T03:48:48;100726.91;;;18.22;94.14
57048;BME280;42934;54.294;18.598;2023-09-30T03:51:16;100745.13;;;18.13;93.50
57048;BME280;42934;54.294;18.598;2023-09-30T03:53:46;100770.09;;;18.11;91.64
57048;BME280;42934;54.294;18.598;2023-09-30T03:56:15;100767.34;;;17.98;90.48
57048;BME280;42934;54.294;18.598;2023-09-30T03:58:46;100758.59;;;17.82;89.65
57048;BME280;42934;54.294;18.598;2023-09-30T04:01:17;100766.31;;;18.01;89.43
57048;BME280;42934;54.294;18.598;2023-09-30T04:03:48;100760.78;;;17.89;88.87
57048;BME280;42934;54.294;18.598;2023-09-30T04:06:17;100780.06;;;17.93;89.03
57048;BME280;42934;54.294;18.598;2023-09-30T04:08:46;100793.47;;;17.76;89.14
57048;BME280;42934;54.294;18.598;2023-09-30T04:11:15;100787.94;;;17.80;88.97
57048;BME280;42934;54.294;18.598;2023-09-30T04:13:46;100786.59;;;17.87;88.31
57048;BME280;42934;54.294;18.598;2023-09-30T04:16:14;100787.94;;;17.80;88.02
57048;BME280;42934;54.294;18.598;2023-09-30T04:18:45;100796.94;;;17.78;86.67
57048;BME280;42934;54.294;18.598;2023-09-30T04:21:13;100799.94;;;17.71;86.36
57048;BME280;42934;54.294;18.598;2023-09-30T04:23:43;100812.25;;;17.73;86.46
57048;BME280;42934;54.294;18.598;2023-09-30T04:26:12;100820.59;;;17.66;85.55
57048;BME280;42934;54.294;18.598;2023-09-30T04:28:41;100813.16;;;17.57;84.73
57048;BME280;42934;54.294;18.598;2023-09-30T04:31:11;100824.63;;;17.58;84.05
57048;BME280;42934;54.294;18.598;2023-09-30T04:33:41;100828.44;;;17.54;83.76
57048;BME280;42934;54.294;18.598;2023-09-30T04:36:12;100828.88;;;17.46;83.91
57048;BME280;42934;54.294;18.598;2023-09-30T04:38:41;100828.78;;;17.47;83.01
57048;BME280;42934;54.294;18.598;2023-09-30T04:41:10;100847.19;;;17.51;82.87
57048;BME280;42934;54.294;18.598;2023-09-30T04:43:40;100847.63;;;17.43;81.72
57048;BME280;42934;54.294;18.598;2023-09-30T04:46:11;100854.06;;;17.39;81.83
57048;BME280;42934;54.294;18.598;2023-09-30T04:48:41;100861.25;;;17.37;80.86
57048;BME280;42934;54.294;18.598;2023-09-30T04:51:11;100862.56;;;17.30;80.57
57048;BME280;42934;54.294;18.598;2023-09-30T04:53:44;100869.75;;;17.28;80.19
57048;BME280;42934;54.294;18.598;2023-09-30T04:56:13;100870.88;;;17.08;80.63
57048;BME280;42934;54.294;18.598;2023-09-30T04:58:42;100863.50;;;16.97;80.23
57048;BME280;42934;54.294;18.598;2023-09-30T05:01:12;100870.53;;;17.14;79.69
57048;BME280;42934;54.294;18.598;2023-09-30T05:03:41;100876.78;;;17.13;79.36
57048;BME280;42934;54.294;18.598;2023-09-30T05:06:13;100886.91;;;17.06;79.05
57048;BME280;42934;54.294;18.598;2023-09-30T05:08:42;100901.94;;;17.06;78.32
57048;BME280;42934;54.294;18.598;2023-09-30T05:11:11;100905.19;;;16.95;78.17
57048;BME280;42934;54.294;18.598;2023-09-30T05:13:40;100907.75;;;16.96;78.43
57048;BME280;42934;54.294;18.598;2023-09-30T05:16:09;100904.84;;;17.01;78.10
57048;BME280;42934;54.294;18.598;2023-09-30T05:18:42;100917.69;;;16.93;77.98
57048;BME280;42934;54.294;18.598;2023-09-30T05:21:12;100919.38;;;16.78;78.00
57048;BME280;42934;54.294;18.598;2023-09-30T05:23:41;100931.06;;;16.74;78.23
57048;BME280;42934;54.294;18.598;2023-09-30T05:26:10;100932.69;;;16.76;78.09
57048;BME280;42934;54.294;18.598;2023-09-30T05:28:39;100937.38;;;16.71;78.28
57048;BME280;42934;54.294;18.598;2023-09-30T05:31:09;100940.44;;;16.64;77.88
57048;BME280;42934;54.294;18.598;2023-09-30T05:33:38;100936.44;;;16.72;78.11
57048;BME280;42934;54.294;18.598;2023-09-30T05:36:07;100951.66;;;16.69;77.45
57048;BME280;42934;54.294;18.598;2023-09-30T05:38:38;100951.19;;;16.78;77.32
57048;BME280;42934;54.294;18.598;2023-09-30T05:41:07;100953.34;;;16.54;77.05
57048;BME280;42934;54.294;18.598;2023-09-30T05:43:36;100953.50;;;16.51;76.98
57048;BME280;42934;54.294;18.598;2023-09-30T05:46:06;100958.97;;;16.48;76.83
57048;BME280;42934;54.294;18.598;2023-09-30T05:48:37;100961.84;;;16.43;76.44
57048;BME280;42934;54.294;18.598;2023-09-30T05:51:07;100970.25;;;16.51;76.25
57048;BME280;42934;54.294;18.598;2023-09-30T05:53:38;100963.97;;;16.37;75.71
57048;BME280;42934;54.294;18.598;2023-09-30T05:56:06;100966.13;;;16.28;76.12
57048;BME280;42934;54.294;18.598;2023-09-30T05:58:35;100976.03;;;16.42;76.49
57048;BME280;42934;54.294;18.598;2023-09-30T06:01:08;100976.25;;;16.38;76.11
57048;BME280;42934;54.294;18.598;2023-09-30T06:03:40;100974.41;;;16.40;76.37
57048;BME280;42934;54.294;18.598;2023-09-30T06:06:11;100985.38;;;16.32;76.38
57048;BME280;42934;54.294;18.598;2023-09-30T06:08:43;100982.13;;;16.27;76.36
57048;BME280;42934;54.294;18.598;2023-09-30T06:11:17;100993.16;;;16.18;77.01
57048;BME280;42934;54.294;18.598;2023-09-30T06:13:46;100993.56;;;16.10;77.22
57048;BME280;42934;54.294;18.598;2023-09-30T06:16:16;100992.31;;;16.17;77.29
57048;BME280;42934;54.294;18.598;2023-09-30T06:18:46;100993.31;;;16.32;76.88
57048;BME280;42934;54.294;18.598;2023-09-30T06:21:15;101000.28;;;16.34;76.71
57048;BME280;42934;54.294;18.598;2023-09-30T06:23:47;100994.81;;;16.38;76.83
57048;BME280;42934;54.294;18.598;2023-09-30T06:26:16;100993.16;;;16.35;76.27
57048;BME280;42934;54.294;18.598;2023-09-30T06:28:45;100997.72;;;16.33;76.12
57048;BME280;42934;54.294;18.598;2023-09-30T06:31:15;101002.91;;;16.34;76.09
57048;BME280;42934;54.294;18.598;2023-09-30T06:33:44;100998.03;;;16.44;76.01
57048;BME280;42934;54.294;18.598;2023-09-30T06:36:13;101005.81;;;16.30;75.24
57048;BME280;42934;54.294;18.598;2023-09-30T06:38:45;101010.50;;;16.25;75.16
57048;BME280;42934;54.294;18.598;2023-09-30T06:41:16;101011.34;;;16.25;75.16
57048;BME280;42934;54.294;18.598;2023-09-30T06:43:45;101020.00;;;16.29;75.08
57048;BME280;42934;54.294;18.598;2023-09-30T06:46:15;101017.91;;;16.35;74.55
57048;BME280;42934;54.294;18.598;2023-09-30T06:48:44;101017.81;;;16.37;74.42
57048;BME280;42934;54.294;18.598;2023-09-30T06:51:14;101029.25;;;16.38;74.00
57048;BME280;42934;54.294;18.598;2023-09-30T06:53:45;101024.97;;;16.35;74.20
57048;BME280;42934;54.294;18.598;2023-09-30T06:56:14;101026.88;;;16.33;73.88
57048;BME280;42934;54.294;18.598;2023-09-30T06:58:43;101037.63;;;16.47;74.10
57048;BME280;42934;54.294;18.598;2023-09-30T07:01:15;101032.31;;;16.47;73.39
57048;BME280;42934;54.294;18.598;2023-09-30T07:03:46;101041.81;;;16.51;73.61
57048;BME280;42934;54.294;18.598;2023-09-30T07:06:22;101055.13;;;16.50;72.95
57048;BME280;42934;54.294;18.598;2023-09-30T07:08:53;101045.25;;;16.36;71.51
57048;BME280;42934;54.294;18.598;2023-09-30T07:11:31;101052.66;;;16.64;72.11
57048;BME280;42934;54.294;18.598;2023-09-30T07:14:01;101034.88;;;16.66;71.61
57048;BME280;42934;54.294;18.598;2023-09-30T07:16:31;101046.50;;;16.64;71.18
57048;BME280;42934;54.294;18.598;2023-09-30T07:19:00;101041.28;;;16.62;71.21
57048;BME280;42934;54.294;18.598;2023-09-30T07:21:30;101046.28;;;16.68;71.15
57048;BME280;42934;54.294;18.598;2023-09-30T07:24:01;101049.13;;;16.64;71.04
57048;BME280;42934;54.294;18.598;2023-09-30T07:26:30;101045.66;;;16.80;71.28
57048;BME280;42934;54.294;18.598;2023-09-30T07:28:59;101042.22;;;16.78;71.38
57048;BME280;42934;54.294;18.598;2023-09-30T07:31:28;101053.44;;;16.84;71.36
57048;BME280;42934;54.294;18.598;2023-09-30T07:33:57;101052.59;;;16.83;70.92
57048;BME280;42934;54.294;18.598;2023-09-30T07:36:26;101056.94;;;16.84;69.93
57048;BME280;42934;54.294;18.598;2023-09-30T07:38:55;101058.19;;;16.94;69.84
57048;BME280;42934;54.294;18.598;2023-09-30T07:41:26;101063.34;;;16.97;69.78
57048;BME280;42934;54.294;18.598;2023-09-30T07:43:55;101065.72;;;17.02;70.12
57048;BME280;42934;54.294;18.598;2023-09-30T07:46:24;101077.28;;;17.01;70.43
57048;BME280;42934;54.294;18.598;2023-09-30T07:48:53;101072.22;;;16.96;70.95
57048;BME280;42934;54.294;18.598;2023-09-30T07:51:23;101075.84;;;16.78;70.78
57048;BME280;42934;54.294;18.598;2023-09-30T07:53:52;101084.00;;;16.91;71.13
57048;BME280;42934;54.294;18.598;2023-09-30T07:56:21;101076.63;;;17.13;71.32
57048;BME280;42934;54.294;18.598;2023-09-30T07:58:52;101081.00;;;17.14;70.59
57048;BME280;42934;54.294;18.598;2023-09-30T08:01:21;101082.00;;;17.12;70.37
57048;BME280;42934;54.294;18.598;2023-09-30T08:03:51;101086.31;;;17.14;70.74
57048;BME280;42934;54.294;18.598;2023-09-30T08:06:20;101079.47;;;17.10;70.41
57048;BME280;42934;54.294;18.598;2023-09-30T08:08:49;101088.44;;;17.08;70.52
57048;BME280;42934;54.294;18.598;2023-09-30T08:11:18;101092.97;;;17.06;70.53
57048;BME280;42934;54.294;18.598;2023-09-30T08:13:48;101087.59;;;17.07;70.07
57048;BME280;42934;54.294;18.598;2023-09-30T08:16:18;101096.75;;;17.17;69.15
57048;BME280;42934;54.294;18.598;2023-09-30T08:18:49;101094.72;;;17.22;69.79
57048;BME280;42934;54.294;18.598;2023-09-30T08:21:18;101095.75;;;17.20;68.90
57048;BME280;42934;54.294;18.598;2023-09-30T08:23:47;101101.09;;;17.36;69.26
57048;BME280;42934;54.294;18.598;2023-09-30T08:26:16;101104.91;;;17.47;68.50
57048;BME280;42934;54.294;18.598;2023-09-30T08:28:45;101109.25;;;17.48;66.74
57048;BME280;42934;54.294;18.598;2023-09-30T08:31:14;101099.09;;;17.57;65.04
57048;BME280;42934;54.294;18.598;2023-09-30T08:33:45;101098.91;;;17.60;64.20
57048;BME280;42934;54.294;18.598;2023-09-30T08:36:14;101114.50;;;17.50;62.89
57048;BME280;42934;54.294;18.598;2023-09-30T08:38:43;101112.59;;;17.52;63.46
57048;BME280;42934;54.294;18.598;2023-09-30T08:41:27;101117.34;;;17.63;64.02
57048;BME280;42934;54.294;18.598;2023-09-30T08:44:01;101116.03;;;17.54;62.86
57048;BME280;42934;54.294;18.598;2023-09-30T08:46:32;101128.13;;;17.60;63.54
57048;BME280;42934;54.294;18.598;2023-09-30T08:49:04;101129.81;;;17.61;63.83
57048;BME280;42934;54.294;18.598;2023-09-30T08:51:34;101130.94;;;17.57;63.36
57048;BME280;42934;54.294;18.598;2023-09-30T08:54:05;101134.34;;;17.59;63.57
57048;BME280;42934;54.294;18.598;2023-09-30T08:56:34;101140.72;;;17.72;63.63
57048;BME280;42934;54.294;18.598;2023-09-30T08:59:04;101143.16;;;17.77;63.00
57048;BME280;42934;54.294;18.598;2023-09-30T09:01:34;101138.72;;;17.93;63.03
57048;BME280;42934;54.294;18.598;2023-09-30T09:04:07;101138.38;;;18.15;63.17
57048;BME280;42934;54.294;18.598;2023-09-30T09:06:36;101144.53;;;18.00;60.49
57048;BME280;42934;54.294;18.598;2023-09-30T09:09:14;101148.75;;;18.04;62.32
57048;BME280;42934;54.294;18.598;2023-09-30T09:11:44;101147.81;;;17.89;62.18
57048;BME280;42934;54.294;18.598;2023-09-30T09:14:14;101139.16;;;18.01;62.94
57048;BME280;42934;54.294;18.598;2023-09-30T09:17:01;101144.47;;;18.01;62.66
57048;BME280;42934;54.294;18.598;2023-09-30T09:19:34;101139.03;;;18.03;61.69
57048;BME280;42934;54.294;18.598;2023-09-30T09:22:03;101145.31;;;18.02;61.16
57048;BME280;42934;54.294;18.598;2023-09-30T09:24:36;101151.66;;;17.99;61.39
57048;BME280;42934;54.294;18.598;2023-09-30T09:27:08;101147.19;;;18.00;61.38
57048;BME280;42934;54.294;18.598;2023-09-30T09:29:38;101153.63;;;18.11;61.32
57048;BME280;42934;54.294;18.598;2023-09-30T09:32:09;101155.44;;;18.27;61.35
57048;BME280;42934;54.294;18.598;2023-09-30T09:34:40;101153.88;;;18.38;61.41
57048;BME280;42934;54.294;18.598;2023-09-30T09:37:17;101160.97;;;18.54;61.09
57048;BME280;42934;54.294;18.598;2023-09-30T09:39:51;101162.09;;;18.34;59.47
57048;BME280;42934;54.294;18.598;2023-09-30T09:42:28;101169.47;;;18.29;59.82
57048;BME280;42934;54.294;18.598;2023-09-30T09:44:59;101170.28;;;18.15;60.55
57048;BME280;42934;54.294;18.598;2023-09-30T09:47:29;101170.59;;;18.25;59.89
57048;BME280;42934;54.294;18.598;2023-09-30T09:50:04;101162.19;;;18.16;59.06
57048;BME280;42934;54.294;18.598;2023-09-30T09:52:34;101163.25;;;18.30;60.38
57048;BME280;42934;54.294;18.598;2023-09-30T09:55:05;101166.91;;;18.43;60.19
57048;BME280;42934;54.294;18.598;2023-09-30T09:57:36;101160.97;;;18.54;58.56
57048;BME280;42934;54.294;18.598;2023-09-30T10:00:07;101165.47;;;18.68;58.39
57048;BME280;42934;54.294;18.598;2023-09-30T10:02:41;101176.88;;;18.70;57.38
57048;BME280;42934;54.294;18.598;2023-09-30T10:05:12;101170.13;;;18.64;57.50
57048;BME280;42934;54.294;18.598;2023-09-30T10:07:46;101171.69;;;18.52;56.67
57048;BME280;42934;54.294;18.598;2023-09-30T10:10:20;101171.78;;;18.51;57.44
57048;BME280;42934;54.294;18.598;2023-09-30T10:12:51;101185.75;;;18.54;57.13
57048;BME280;42934;54.294;18.598;2023-09-30T10:15:37;101179.72;;;18.21;57.82
57048;BME280;42934;54.294;18.598;2023-09-30T10:18:09;101175.56;;;18.31;58.33
57048;BME280;42934;54.294;18.598;2023-09-30T10:20:45;101175.75;;;18.28;58.68
57048;BME280;42934;54.294;18.598;2023-09-30T10:23:25;101172.06;;;18.14;58.77
57048;BME280;42934;54.294;18.598;2023-09-30T10:26:13;101177.06;;;18.21;59.89
57048;BME280;42934;54.294;18.598;2023-09-30T10:28:46;101176.09;;;18.22;59.41
57048;BME280;42934;54.294;18.598;2023-09-30T10:31:19;101176.44;;;18.31;59.46
57048;BME280;42934;54.294;18.598;2023-09-30T10:34:20;101173.31;;;18.55;59.52
57048;BME280;42934;54.294;18.598;2023-09-30T10:36:51;101175.34;;;18.66;58.54
57048;BME280;42934;54.294;18.598;2023-09-30T10:39:54;101180.50;;;18.69;59.16
57048;BME280;42934;54.294;18.598;2023-09-30T10:42:48;101177.34;;;18.78;59.66
57048;BME280;42934;54.294;18.598;2023-09-30T10:45:44;101180.97;;;18.91;59.09
57048;BME280;42934;54.294;18.598;2023-09-30T10:48:37;101180.25;;;19.03;58.55
57048;BME280;42934;54.294;18.598;2023-09-30T10:51:16;101183.19;;;18.99;57.85
57048;BME280;42934;54.294;18.598;2023-09-30T10:53:51;101181.03;;;18.75;57.25
57048;BME280;42934;54.294;18.598;2023-09-30T10:56:26;101182.84;;;18.75;58.33
57048;BME280;42934;54.294;18.598;2023-09-30T10:59:01;101194.28;;;18.91;58.35
57048;BME280;42934;54.294;18.598;2023-09-30T11:01:33;101197.81;;;18.92;58.69
57048;BME280;42934;54.294;18.598;2023-09-30T11:04:04;101212.09;;;19.05;58.71
57048;BME280;42934;54.294;18.598;2023-09-30T11:06:35;101205.06;;;19.04;58.16
57048;BME280;42934;54.294;18.598;2023-09-30T11:09:14;101193.19;;;19.10;58.81
57048;BME280;42934;54.294;18.598;2023-09-30T11:11:45;101208.50;;;19.06;58.58
57048;BME280;42934;54.294;18.598;2023-09-30T11:14:21;101206.34;;;19.13;58.51
57048;BME280;42934;54.294;18.598;2023-09-30T11:16:56;101204.03;;;19.06;58.04
57048;BME280;42934;54.294;18.598;2023-09-30T11:19:25;101215.22;;;18.97;58.19
57048;BME280;42934;54.294;18.598;2023-09-30T11:21:55;101207.50;;;18.93;58.70
57048;BME280;42934;54.294;18.598;2023-09-30T11:24:28;101205.16;;;19.02;59.12
57048;BME280;42934;54.294;18.598;2023-09-30T11:26:57;101208.59;;;19.04;58.91
57048;BME280;42934;54.294;18.598;2023-09-30T11:29:26;101206.50;;;19.10;58.85
57048;BME280;42934;54.294;18.598;2023-09-30T11:31:55;101206.41;;;19.11;58.07
57048;BME280;42934;54.294;18.598;2023-09-30T11:34:32;101203.31;;;19.19;57.71
57048;BME280;42934;54.294;18.598;2023-09-30T11:37:02;101203.19;;;19.20;57.80
57048;BME280;42934;54.294;18.598;2023-09-30T11:39:33;101209.50;;;19.34;56.94
57048;BME280;42934;54.294;18.598;2023-09-30T11:42:02;101196.75;;;19.24;55.45
57048;BME280;42934;54.294;18.598;2023-09-30T11:44:45;101209.22;;;19.24;55.96
57048;BME280;42934;54.294;18.598;2023-09-30T11:47:15;101203.50;;;19.30;55.63
57048;BME280;42934;54.294;18.598;2023-09-30T11:49:45;101208.16;;;19.26;55.16
57048;BME280;42934;54.294;18.598;2023-09-30T11:52:27;101196.78;;;19.39;55.47
57048;BME280;42934;54.294;18.598;2023-09-30T11:54:58;101200.38;;;19.52;54.97
57048;BME280;42934;54.294;18.598;2023-09-30T11:57:28;101196.69;;;19.55;54.04
57048;BME280;42934;54.294;18.598;2023-09-30T11:59:58;101198.03;;;19.47;53.39
57048;BME280;42934;54.294;18.598;2023-09-30T12:02:27;101192.97;;;19.57;53.02
57048;BME280;42934;54.294;18.598;2023-09-30T12:04:56;101193.41;;;19.65;52.88
57048;BME280;42934;54.294;18.598;2023-09-30T12:07:25;101190.78;;;19.64;51.87
57048;BME280;42934;54.294;18.598;2023-09-30T12:09:54;101199.56;;;19.66;52.04
57048;BME280;42934;54.294;18.598;2023-09-30T12:12:25;101198.88;;;19.62;51.38
57048;BME280;42934;54.294;18.598;2023-09-30T12:14:54;101202.81;;;19.71;51.69
57048;BME280;42934;54.294;18.598;2023-09-30T12:17:23;101204.59;;;19.70;52.30
57048;BME280;42934;54.294;18.598;2023-09-30T12:19:52;101204.06;;;19.65;52.88
57048;BME280;42934;54.294;18.598;2023-09-30T12:22:21;101205.06;;;19.63;53.07
57048;BME280;42934;54.294;18.598;2023-09-30T12:24:50;101216.56;;;19.63;53.03
57048;BME280;42934;54.294;18.598;2023-09-30T12:27:19;101205.75;;;19.81;53.14
57048;BME280;42934;54.294;18.598;2023-09-30T12:29:50;101209.00;;;19.86;52.69
57048;BME280;42934;54.294;18.598;2023-09-30T12:32:19;101210.44;;;19.91;52.83
57048;BME280;42934;54.294;18.598;2023-09-30T12:34:48;101202.50;;;19.90;51.65
57048;BME280;42934;54.294;18.598;2023-09-30T12:37:18;101203.66;;;19.86;51.35
57048;BME280;42934;54.294;18.598;2023-09-30T12:39:47;101208.44;;;19.81;50.61
57048;BME280;42934;54.294;18.598;2023-09-30T12:42:16;101204.41;;;19.88;50.42
57048;BME280;42934;54.294;18.598;2023-09-30T12:44:45;101216.22;;;19.84;50.84
57048;BME280;42934;54.294;18.598;2023-09-30T12:47:15;101220.03;;;19.80;51.01
57048;BME280;42934;54.294;18.598;2023-09-30T12:49:45;101217.72;;;19.73;51.10
57048;BME280;42934;54.294;18.598;2023-09-30T12:52:13;101228.28;;;19.61;51.36
57048;BME280;42934;54.294;18.598;2023-09-30T12:54:42;101221.31;;;19.58;51.49
57048;BME280;42934;54.294;18.598;2023-09-30T12:57:11;101229.97;;;19.47;52.52
57048;BME280;42934;54.294;18.598;2023-09-30T12:59:43;101222.72;;;19.49;52.68